sensor_id;sensor_type;location;lat;lon;timestamp;P1;durP1;ratioP1;P2;durP2;ratioP2
79464;SDS011;68932;47.410;8.232;2024-03-22T00:00:08;3.30;;;3.00;;
79464;SDS011;68932;47.410;8.232;2024-03-22T00:02:36;3.10;;;2.40;;
79464;SDS011;68932;47.410;8.232;2024-03-22T00:05:05;5.30;;;2.70;;
79464;SDS011;68932;47.410;8.232;2024-03-22T00:07:33;3.40;;;3.10;;
79464;SDS011;68932;47.410;8.232;2024-03-22T00:10:01;4.30;;;2.80;;
79464;SDS011;68932;47.410;8.232;2024-03-22T00:12:29;5.20;;;2.60;;
79464;SDS011;68932;47.410;8.232;2024-03-22T00:14:57;5.50;;;2.70;;
79464;SDS011;68932;47.410;8.232;2024-03-22T00:17:25;3.60;;;2.80;;
79464;SDS011;68932;47.410;8.232;2024-03-22T00:19:53;3.80;;;3.30;;
79464;SDS011;68932;47.410;8.232;2024-03-22T00:22:21;5.70;;;3.00;;
79464;SDS011;68932;47.410;8.232;2024-03-22T00:24:49;8.10;;;3.50;;
79464;SDS011;68932;47.410;8.232;2024-03-22T00:27:16;7.10;;;3.60;;
79464;SDS011;68932;47.410;8.232;2024-03-22T00:29:45;6.80;;;4.10;;
79464;SDS011;68932;47.410;8.232;2024-03-22T00:32:13;4.50;;;3.20;;
79464;SDS011;68932;47.410;8.232;2024-03-22T00:34:41;5.10;;;3.40;;
79464;SDS011;68932;47.410;8.232;2024-03-22T00:37:10;5.50;;;3.80;;
79464;SDS011;68932;47.410;8.232;2024-03-22T00:39:38;5.00;;;4.00;;
79464;SDS011;68932;47.410;8.232;2024-03-22T00:42:06;4.50;;;3.20;;
79464;SDS011;68932;47.410;8.232;2024-03-22T00:44:34;5.60;;;3.70;;
79464;SDS011;68932;47.410;8.232;2024-03-22T00:47:01;5.40;;;3.80;;
79464;SDS011;68932;47.410;8.232;2024-03-22T00:49:30;5.80;;;3.60;;
79464;SDS011;68932;47.410;8.232;2024-03-22T00:51:58;4.40;;;3.60;;
79464;SDS011;68932;47.410;8.232;2024-03-22T00:54:26;4.80;;;3.50;;
79464;SDS011;68932;47.410;8.232;2024-03-22T00:56:54;7.20;;;3.90;;
79464;SDS011;68932;47.410;8.232;2024-03-22T00:59:22;5.50;;;3.60;;
79464;SDS011;68932;47.410;8.232;2024-03-22T01:01:50;6.40;;;4.10;;
79464;SDS011;68932;47.410;8.232;2024-03-22T01:04:18;4.50;;;3.30;;
79464;SDS011;68932;47.410;8.232;2024-03-22T01:06:46;5.40;;;3.10;;
79464;SDS011;68932;47.410;8.232;2024-03-22T01:09:14;5.50;;;3.00;;
79464;SDS011;68932;47.410;8.232;2024-03-22T01:11:42;4.30;;;3.50;;
79464;SDS011;68932;47.410;8.232;2024-03-22T01:14:09;7.70;;;4.60;;
79464;SDS011;68932;47.410;8.232;2024-03-22T01:16:37;5.30;;;3.40;;
79464;SDS011;68932;47.410;8.232;2024-03-22T01:19:05;4.00;;;3.20;;
79464;SDS011;68932;47.410;8.232;2024-03-22T01:21:33;5.70;;;4.30;;
79464;SDS011;68932;47.410;8.232;2024-03-22T01:24:01;4.90;;;3.50;;
79464;SDS011;68932;47.410;8.232;2024-03-22T01:26:29;4.70;;;3.50;;
79464;SDS011;68932;47.410;8.232;2024-03-22T01:28:57;6.90;;;4.70;;
79464;SDS011;68932;47.410;8.232;2024-03-22T01:31:25;6.00;;;4.00;;
79464;SDS011;68932;47.410;8.232;2024-03-22T01:33:53;6.00;;;3.60;;
79464;SDS011;68932;47.410;8.232;2024-03-22T01:36:21;5.00;;;4.20;;
79464;SDS011;68932;47.410;8.232;2024-03-22T01:38:49;5.80;;;4.50;;
79464;SDS011;68932;47.410;8.232;2024-03-22T01:41:17;5.20;;;3.80;;
79464;SDS011;68932;47.410;8.232;2024-03-22T01:43:45;5.90;;;3.60;;
79464;SDS011;68932;47.410;8.232;2024-03-22T01:46:13;5.00;;;3.70;;
79464;SDS011;68932;47.410;8.232;2024-03-22T01:48:41;4.90;;;4.50;;
79464;SDS011;68932;47.410;8.232;2024-03-22T01:51:09;6.30;;;4.30;;
79464;SDS011;68932;47.410;8.232;2024-03-22T01:53:37;5.30;;;4.00;;
79464;SDS011;68932;47.410;8.232;2024-03-22T01:56:07;6.10;;;3.80;;
79464;SDS011;68932;47.410;8.232;2024-03-22T01:58:35;5.00;;;4.20;;
79464;SDS011;68932;47.410;8.232;2024-03-22T02:01:03;4.80;;;3.60;;
79464;SDS011;68932;47.410;8.232;2024-03-22T02:03:31;5.10;;;3.60;;
79464;SDS011;68932;47.410;8.232;2024-03-22T02:05:59;4.80;;;3.40;;
79464;SDS011;68932;47.410;8.232;2024-03-22T02:08:27;4.20;;;3.50;;
79464;SDS011;68932;47.410;8.232;2024-03-22T02:10:55;3.90;;;3.30;;
79464;SDS011;68932;47.410;8.232;2024-03-22T02:13:23;4.90;;;3.80;;
79464;SDS011;68932;47.410;8.232;2024-03-22T02:15:51;7.40;;;3.90;;
79464;SDS011;68932;47.410;8.232;2024-03-22T02:18:19;6.00;;;3.50;;
79464;SDS011;68932;47.410;8.232;2024-03-22T02:20:47;6.30;;;3.30;;
79464;SDS011;68932;47.410;8.232;2024-03-22T02:23:15;4.80;;;3.50;;
79464;SDS011;68932;47.410;8.232;2024-03-22T02:25:43;8.00;;;4.10;;
79464;SDS011;68932;47.410;8.232;2024-03-22T02:28:10;4.20;;;3.70;;
79464;SDS011;68932;47.410;8.232;2024-03-22T02:30:38;3.60;;;2.90;;
79464;SDS011;68932;47.410;8.232;2024-03-22T02:33:06;3.60;;;2.80;;
79464;SDS011;68932;47.410;8.232;2024-03-22T02:35:34;4.70;;;3.40;;
79464;SDS011;68932;47.410;8.232;2024-03-22T02:38:02;5.50;;;3.30;;
79464;SDS011;68932;47.410;8.232;2024-03-22T02:40:30;4.40;;;3.30;;
79464;SDS011;68932;47.410;8.232;2024-03-22T02:42:58;4.50;;;3.10;;
79464;SDS011;68932;47.410;8.232;2024-03-22T02:45:26;5.00;;;3.30;;
79464;SDS011;68932;47.410;8.232;2024-03-22T02:47:56;3.80;;;3.40;;
79464;SDS011;68932;47.410;8.232;2024-03-22T02:50:24;5.20;;;3.20;;
79464;SDS011;68932;47.410;8.232;2024-03-22T02:52:52;5.80;;;3.80;;
79464;SDS011;68932;47.410;8.232;2024-03-22T02:55:20;4.40;;;3.50;;
79464;SDS011;68932;47.410;8.232;2024-03-22T02:57:48;4.30;;;3.50;;
79464;SDS011;68932;47.410;8.232;2024-03-22T03:00:17;5.20;;;3.90;;
79464;SDS011;68932;47.410;8.232;2024-03-22T03:02:45;6.60;;;3.30;;
79464;SDS011;68932;47.410;8.232;2024-03-22T03:05:13;4.00;;;3.40;;
79464;SDS011;68932;47.410;8.232;2024-03-22T03:07:41;4.30;;;3.90;;
79464;SDS011;68932;47.410;8.232;2024-03-22T03:10:09;4.30;;;3.30;;
79464;SDS011;68932;47.410;8.232;2024-03-22T03:12:37;6.60;;;3.80;;
79464;SDS011;68932;47.410;8.232;2024-03-22T03:15:06;3.60;;;3.10;;
79464;SDS011;68932;47.410;8.232;2024-03-22T03:17:35;4.50;;;3.30;;
79464;SDS011;68932;47.410;8.232;2024-03-22T03:20:03;5.00;;;3.50;;
79464;SDS011;68932;47.410;8.232;2024-03-22T03:22:32;6.30;;;3.50;;
79464;SDS011;68932;47.410;8.232;2024-03-22T03:25:01;4.30;;;3.70;;
79464;SDS011;68932;47.410;8.232;2024-03-22T03:27:30;3.50;;;3.10;;
79464;SDS011;68932;47.410;8.232;2024-03-22T03:29:58;5.20;;;3.80;;
79464;SDS011;68932;47.410;8.232;2024-03-22T03:32:25;5.10;;;4.00;;
79464;SDS011;68932;47.410;8.232;2024-03-22T03:34:54;5.10;;;3.80;;
79464;SDS011;68932;47.410;8.232;2024-03-22T03:37:22;6.10;;;4.00;;
79464;SDS011;68932;47.410;8.232;2024-03-22T03:39:50;5.40;;;3.60;;
79464;SDS011;68932;47.410;8.232;2024-03-22T03:42:18;5.40;;;3.80;;
79464;SDS011;68932;47.410;8.232;2024-03-22T03:44:45;7.30;;;4.40;;
79464;SDS011;68932;47.410;8.232;2024-03-22T03:47:13;5.20;;;3.90;;
79464;SDS011;68932;47.410;8.232;2024-03-22T03:49:41;5.50;;;3.60;;
79464;SDS011;68932;47.410;8.232;2024-03-22T03:52:11;5.40;;;3.80;;
79464;SDS011;68932;47.410;8.232;2024-03-22T03:54:39;4.40;;;3.60;;
79464;SDS011;68932;47.410;8.232;2024-03-22T03:57:07;5.90;;;4.50;;
79464;SDS011;68932;47.410;8.232;2024-03-22T03:59:35;5.90;;;4.50;;
79464;SDS011;68932;47.410;8.232;2024-03-22T04:02:03;6.10;;;4.60;;
79464;SDS011;68932;47.410;8.232;2024-03-22T04:04:31;5.60;;;4.10;;
79464;SDS011;68932;47.410;8.232;2024-03-22T04:06:59;6.00;;;4.40;;
79464;SDS011;68932;47.410;8.232;2024-03-22T04:09:27;5.00;;;3.70;;
79464;SDS011;68932;47.410;8.232;2024-03-22T04:11:55;5.20;;;3.80;;
79464;SDS011;68932;47.410;8.232;2024-03-22T04:14:23;6.40;;;4.10;;
79464;SDS011;68932;47.410;8.232;2024-03-22T04:16:51;5.90;;;3.60;;
79464;SDS011;68932;47.410;8.232;2024-03-22T04:19:19;5.40;;;4.10;;
79464;SDS011;68932;47.410;8.232;2024-03-22T04:21:49;7.00;;;4.10;;
79464;SDS011;68932;47.410;8.232;2024-03-22T04:24:17;4.00;;;3.60;;
79464;SDS011;68932;47.410;8.232;2024-03-22T04:26:46;5.00;;;4.40;;
79464;SDS011;68932;47.410;8.232;2024-03-22T04:29:14;7.40;;;4.90;;
79464;SDS011;68932;47.410;8.232;2024-03-22T04:31:42;5.10;;;4.00;;
79464;SDS011;68932;47.410;8.232;2024-03-22T04:34:09;4.10;;;3.70;;
79464;SDS011;68932;47.410;8.232;2024-03-22T04:36:37;4.30;;;3.70;;
79464;SDS011;68932;47.410;8.232;2024-03-22T04:39:05;5.20;;;4.00;;
79464;SDS011;68932;47.410;8.232;2024-03-22T04:41:33;6.00;;;3.80;;
79464;SDS011;68932;47.410;8.232;2024-03-22T04:44:01;5.00;;;4.00;;
79464;SDS011;68932;47.410;8.232;2024-03-22T04:46:29;6.30;;;4.10;;
79464;SDS011;68932;47.410;8.232;2024-03-22T04:48:57;5.70;;;4.30;;
79464;SDS011;68932;47.410;8.232;2024-03-22T04:51:25;5.10;;;4.60;;
79464;SDS011;68932;47.410;8.232;2024-03-22T04:53:53;4.70;;;4.10;;
79464;SDS011;68932;47.410;8.232;2024-03-22T04:56:21;5.70;;;4.00;;
79464;SDS011;68932;47.410;8.232;2024-03-22T04:58:49;5.80;;;3.90;;
79464;SDS011;68932;47.410;8.232;2024-03-22T05:01:16;6.60;;;4.10;;
79464;SDS011;68932;47.410;8.232;2024-03-22T05:03:44;5.60;;;4.00;;
79464;SDS011;68932;47.410;8.232;2024-03-22T05:06:12;5.80;;;3.60;;
79464;SDS011;68932;47.410;8.232;2024-03-22T05:08:40;4.40;;;4.00;;
79464;SDS011;68932;47.410;8.232;2024-03-22T05:11:08;4.80;;;3.30;;
79464;SDS011;68932;47.410;8.232;2024-03-22T05:13:36;4.40;;;3.50;;
79464;SDS011;68932;47.410;8.232;2024-03-22T05:16:04;5.60;;;3.90;;
79464;SDS011;68932;47.410;8.232;2024-03-22T05:18:33;6.00;;;4.20;;
79464;SDS011;68932;47.410;8.232;2024-03-22T05:21:01;4.10;;;3.70;;
79464;SDS011;68932;47.410;8.232;2024-03-22T05:23:29;7.60;;;4.20;;
79464;SDS011;68932;47.410;8.232;2024-03-22T05:25:57;5.30;;;4.20;;
79464;SDS011;68932;47.410;8.232;2024-03-22T05:28:24;7.00;;;4.10;;
79464;SDS011;68932;47.410;8.232;2024-03-22T05:30:52;6.60;;;4.40;;
79464;SDS011;68932;47.410;8.232;2024-03-22T05:33:20;6.50;;;4.40;;
79464;SDS011;68932;47.410;8.232;2024-03-22T05:35:48;6.00;;;4.50;;
79464;SDS011;68932;47.410;8.232;2024-03-22T05:38:16;7.20;;;4.50;;
79464;SDS011;68932;47.410;8.232;2024-03-22T05:40:44;6.40;;;4.90;;
79464;SDS011;68932;47.410;8.232;2024-03-22T05:43:12;5.10;;;4.40;;
79464;SDS011;68932;47.410;8.232;2024-03-22T05:45:40;6.20;;;4.40;;
79464;SDS011;68932;47.410;8.232;2024-03-22T05:48:08;4.50;;;3.80;;
79464;SDS011;68932;47.410;8.232;2024-03-22T05:50:36;5.20;;;3.80;;
79464;SDS011;68932;47.410;8.232;2024-03-22T05:53:04;6.00;;;4.30;;
79464;SDS011;68932;47.410;8.232;2024-03-22T05:55:33;4.90;;;4.40;;
79464;SDS011;68932;47.410;8.232;2024-03-22T05:58:01;7.70;;;5.00;;
79464;SDS011;68932;47.410;8.232;2024-03-22T06:00:29;5.50;;;4.50;;
79464;SDS011;68932;47.410;8.232;2024-03-22T06:02:57;8.40;;;4.90;;
79464;SDS011;68932;47.410;8.232;2024-03-22T06:05:25;5.20;;;4.30;;
79464;SDS011;68932;47.410;8.232;2024-03-22T06:07:53;5.50;;;4.40;;
79464;SDS011;68932;47.410;8.232;2024-03-22T06:10:21;4.80;;;4.30;;
79464;SDS011;68932;47.410;8.232;2024-03-22T06:12:48;7.30;;;5.30;;
79464;SDS011;68932;47.410;8.232;2024-03-22T06:15:16;6.70;;;4.90;;
79464;SDS011;68932;47.410;8.232;2024-03-22T06:17:44;6.30;;;5.00;;
79464;SDS011;68932;47.410;8.232;2024-03-22T06:20:12;5.30;;;4.60;;
79464;SDS011;68932;47.410;8.232;2024-03-22T06:22:40;6.20;;;4.90;;
79464;SDS011;68932;47.410;8.232;2024-03-22T06:25:09;6.30;;;4.80;;
79464;SDS011;68932;47.410;8.232;2024-03-22T06:27:37;7.80;;;4.30;;
79464;SDS011;68932;47.410;8.232;2024-03-22T06:30:06;5.60;;;4.80;;
79464;SDS011;68932;47.410;8.232;2024-03-22T06:32:35;4.80;;;4.30;;
79464;SDS011;68932;47.410;8.232;2024-03-22T06:35:03;5.50;;;4.40;;
79464;SDS011;68932;47.410;8.232;2024-03-22T06:37:32;5.80;;;4.80;;
79464;SDS011;68932;47.410;8.232;2024-03-22T06:40:00;7.80;;;4.90;;
79464;SDS011;68932;47.410;8.232;2024-03-22T06:42:28;6.30;;;4.10;;
79464;SDS011;68932;47.410;8.232;2024-03-22T06:44:55;7.90;;;4.90;;
79464;SDS011;68932;47.410;8.232;2024-03-22T06:47:23;6.20;;;5.20;;
79464;SDS011;68932;47.410;8.232;2024-03-22T06:49:51;7.00;;;5.00;;
79464;SDS011;68932;47.410;8.232;2024-03-22T06:52:19;5.80;;;4.30;;
79464;SDS011;68932;47.410;8.232;2024-03-22T06:54:47;8.60;;;4.80;;
79464;SDS011;68932;47.410;8.232;2024-03-22T06:57:15;5.70;;;4.50;;
79464;SDS011;68932;47.410;8.232;2024-03-22T06:59:43;8.30;;;4.70;;
79464;SDS011;68932;47.410;8.232;2024-03-22T07:02:11;9.20;;;5.80;;
79464;SDS011;68932;47.410;8.232;2024-03-22T07:04:39;6.20;;;4.50;;
79464;SDS011;68932;47.410;8.232;2024-03-22T07:07:07;7.40;;;5.30;;
79464;SDS011;68932;47.410;8.232;2024-03-22T07:09:34;6.10;;;4.80;;
79464;SDS011;68932;47.410;8.232;2024-03-22T07:12:02;8.20;;;4.90;;
79464;SDS011;68932;47.410;8.232;2024-03-22T07:14:31;6.90;;;5.20;;
79464;SDS011;68932;47.410;8.232;2024-03-22T07:16:59;10.30;;;5.70;;
79464;SDS011;68932;47.410;8.232;2024-03-22T07:19:27;8.70;;;5.50;;
79464;SDS011;68932;47.410;8.232;2024-03-22T07:21:55;6.90;;;4.70;;
79464;SDS011;68932;47.410;8.232;2024-03-22T07:24:23;5.20;;;4.70;;
79464;SDS011;68932;47.410;8.232;2024-03-22T07:26:51;9.80;;;4.20;;
79464;SDS011;68932;47.410;8.232;2024-03-22T07:29:19;6.80;;;4.60;;
79464;SDS011;68932;47.410;8.232;2024-03-22T07:31:46;5.80;;;4.60;;
79464;SDS011;68932;47.410;8.232;2024-03-22T07:34:14;5.80;;;4.80;;
79464;SDS011;68932;47.410;8.232;2024-03-22T07:36:42;7.00;;;5.60;;
79464;SDS011;68932;47.410;8.232;2024-03-22T07:39:10;10.40;;;4.50;;
79464;SDS011;68932;47.410;8.232;2024-03-22T07:41:38;7.50;;;3.80;;
79464;SDS011;68932;47.410;8.232;2024-03-22T07:44:06;5.60;;;4.70;;
79464;SDS011;68932;47.410;8.232;2024-03-22T07:46:34;6.10;;;4.40;;
79464;SDS011;68932;47.410;8.232;2024-03-22T07:49:02;5.50;;;4.60;;
79464;SDS011;68932;47.410;8.232;2024-03-22T07:51:30;6.80;;;4.30;;
79464;SDS011;68932;47.410;8.232;2024-03-22T07:53:58;6.40;;;4.50;;
79464;SDS011;68932;47.410;8.232;2024-03-22T07:56:26;9.60;;;5.30;;
79464;SDS011;68932;47.410;8.232;2024-03-22T07:58:54;6.10;;;4.70;;
79464;SDS011;68932;47.410;8.232;2024-03-22T08:01:22;5.80;;;4.20;;
79464;SDS011;68932;47.410;8.232;2024-03-22T08:03:50;6.50;;;4.00;;
79464;SDS011;68932;47.410;8.232;2024-03-22T08:06:19;7.50;;;5.60;;
79464;SDS011;68932;47.410;8.232;2024-03-22T08:08:47;6.90;;;4.90;;
79464;SDS011;68932;47.410;8.232;2024-03-22T08:11:14;7.40;;;4.40;;
79464;SDS011;68932;47.410;8.232;2024-03-22T08:13:42;7.50;;;4.50;;
79464;SDS011;68932;47.410;8.232;2024-03-22T08:16:10;9.30;;;5.00;;
79464;SDS011;68932;47.410;8.232;2024-03-22T08:18:38;5.30;;;4.10;;
79464;SDS011;68932;47.410;8.232;2024-03-22T08:21:06;7.20;;;4.20;;
79464;SDS011;68932;47.410;8.232;2024-03-22T08:23:34;6.30;;;4.10;;
79464;SDS011;68932;47.410;8.232;2024-03-22T08:26:02;5.90;;;3.60;;
79464;SDS011;68932;47.410;8.232;2024-03-22T08:28:30;6.20;;;3.60;;
79464;SDS011;68932;47.410;8.232;2024-03-22T08:30:58;7.00;;;3.80;;
79464;SDS011;68932;47.410;8.232;2024-03-22T08:33:29;5.10;;;3.70;;
79464;SDS011;68932;47.410;8.232;2024-03-22T08:35:57;5.70;;;4.30;;
79464;SDS011;68932;47.410;8.232;2024-03-22T08:38:25;4.90;;;3.40;;
79464;SDS011;68932;47.410;8.232;2024-03-22T08:40:53;5.40;;;3.40;;
79464;SDS011;68932;47.410;8.232;2024-03-22T08:43:21;3.80;;;2.70;;
79464;SDS011;68932;47.410;8.232;2024-03-22T08:45:49;6.10;;;3.10;;
79464;SDS011;68932;47.410;8.232;2024-03-22T08:48:17;5.00;;;3.20;;
79464;SDS011;68932;47.410;8.232;2024-03-22T08:50:45;5.10;;;3.80;;
79464;SDS011;68932;47.410;8.232;2024-03-22T08:53:13;6.10;;;3.40;;
79464;SDS011;68932;47.410;8.232;2024-03-22T08:55:45;6.40;;;4.80;;
79464;SDS011;68932;47.410;8.232;2024-03-22T08:58:14;5.40;;;3.80;;
79464;SDS011;68932;47.410;8.232;2024-03-22T09:00:42;4.50;;;3.90;;
79464;SDS011;68932;47.410;8.232;2024-03-22T09:03:10;4.60;;;3.90;;
79464;SDS011;68932;47.410;8.232;2024-03-22T09:05:38;4.20;;;3.30;;
79464;SDS011;68932;47.410;8.232;2024-03-22T09:08:06;6.30;;;3.40;;
79464;SDS011;68932;47.410;8.232;2024-03-22T09:10:34;5.80;;;3.70;;
79464;SDS011;68932;47.410;8.232;2024-03-22T09:13:02;4.60;;;3.40;;
79464;SDS011;68932;47.410;8.232;2024-03-22T09:15:30;3.70;;;3.20;;
79464;SDS011;68932;47.410;8.232;2024-03-22T09:17:58;5.40;;;3.50;;
79464;SDS011;68932;47.410;8.232;2024-03-22T09:20:26;6.20;;;3.30;;
79464;SDS011;68932;47.410;8.232;2024-03-22T09:22:54;4.20;;;3.70;;
79464;SDS011;68932;47.410;8.232;2024-03-22T09:25:23;4.70;;;2.90;;
79464;SDS011;68932;47.410;8.232;2024-03-22T09:27:51;6.00;;;3.00;;
79464;SDS011;68932;47.410;8.232;2024-03-22T09:30:19;6.00;;;3.60;;
79464;SDS011;68932;47.410;8.232;2024-03-22T09:32:47;5.10;;;2.60;;
79464;SDS011;68932;47.410;8.232;2024-03-22T09:35:15;4.90;;;2.90;;
79464;SDS011;68932;47.410;8.232;2024-03-22T09:37:43;4.40;;;3.30;;
79464;SDS011;68932;47.410;8.232;2024-03-22T09:40:11;5.70;;;3.30;;
79464;SDS011;68932;47.410;8.232;2024-03-22T09:42:41;4.90;;;3.20;;
79464;SDS011;68932;47.410;8.232;2024-03-22T09:45:10;4.40;;;2.90;;
79464;SDS011;68932;47.410;8.232;2024-03-22T09:47:38;4.90;;;3.20;;
79464;SDS011;68932;47.410;8.232;2024-03-22T09:50:08;5.20;;;3.40;;
79464;SDS011;68932;47.410;8.232;2024-03-22T09:52:37;4.70;;;3.10;;
79464;SDS011;68932;47.410;8.232;2024-03-22T09:55:08;4.00;;;2.60;;
79464;SDS011;68932;47.410;8.232;2024-03-22T09:57:37;5.80;;;2.70;;
79464;SDS011;68932;47.410;8.232;2024-03-22T10:00:08;4.50;;;3.00;;
79464;SDS011;68932;47.410;8.232;2024-03-22T10:02:37;4.60;;;3.20;;
79464;SDS011;68932;47.410;8.232;2024-03-22T10:05:06;6.00;;;3.50;;
79464;SDS011;68932;47.410;8.232;2024-03-22T10:07:35;5.30;;;2.90;;
79464;SDS011;68932;47.410;8.232;2024-03-22T10:10:03;6.20;;;3.30;;
79464;SDS011;68932;47.410;8.232;2024-03-22T10:12:32;6.10;;;3.20;;
79464;SDS011;68932;47.410;8.232;2024-03-22T10:15:00;5.30;;;2.70;;
79464;SDS011;68932;47.410;8.232;2024-03-22T10:17:28;6.00;;;3.20;;
79464;SDS011;68932;47.410;8.232;2024-03-22T10:19:56;4.60;;;2.50;;
79464;SDS011;68932;47.410;8.232;2024-03-22T10:22:25;3.10;;;2.30;;
79464;SDS011;68932;47.410;8.232;2024-03-22T10:24:53;3.40;;;2.90;;
79464;SDS011;68932;47.410;8.232;2024-03-22T10:27:21;6.30;;;2.60;;
79464;SDS011;68932;47.410;8.232;2024-03-22T10:29:48;6.20;;;2.80;;
79464;SDS011;68932;47.410;8.232;2024-03-22T10:32:16;4.70;;;3.50;;
79464;SDS011;68932;47.410;8.232;2024-03-22T10:34:45;3.70;;;2.60;;
79464;SDS011;68932;47.410;8.232;2024-03-22T10:37:14;3.60;;;2.20;;
79464;SDS011;68932;47.410;8.232;2024-03-22T10:39:43;3.40;;;1.90;;
79464;SDS011;68932;47.410;8.232;2024-03-22T10:42:12;3.80;;;2.50;;
79464;SDS011;68932;47.410;8.232;2024-03-22T10:44:40;4.70;;;2.10;;
79464;SDS011;68932;47.410;8.232;2024-03-22T10:47:09;4.80;;;2.00;;
79464;SDS011;68932;47.410;8.232;2024-03-22T10:49:39;2.30;;;1.80;;
79464;SDS011;68932;47.410;8.232;2024-03-22T10:52:07;3.60;;;1.90;;
79464;SDS011;68932;47.410;8.232;2024-03-22T10:54:38;2.90;;;1.90;;
79464;SDS011;68932;47.410;8.232;2024-03-22T10:57:11;2.40;;;1.60;;
79464;SDS011;68932;47.410;8.232;2024-03-22T10:59:42;2.50;;;1.50;;
79464;SDS011;68932;47.410;8.232;2024-03-22T11:02:11;2.70;;;1.60;;
79464;SDS011;68932;47.410;8.232;2024-03-22T11:04:39;4.00;;;1.50;;
79464;SDS011;68932;47.410;8.232;2024-03-22T11:07:07;3.90;;;1.60;;
79464;SDS011;68932;47.410;8.232;2024-03-22T11:09:35;2.70;;;1.90;;
79464;SDS011;68932;47.410;8.232;2024-03-22T11:12:03;2.50;;;1.60;;
79464;SDS011;68932;47.410;8.232;2024-03-22T11:14:32;2.90;;;1.80;;
79464;SDS011;68932;47.410;8.232;2024-03-22T11:17:00;3.50;;;1.30;;
79464;SDS011;68932;47.410;8.232;2024-03-22T11:19:27;3.10;;;1.40;;
79464;SDS011;68932;47.410;8.232;2024-03-22T11:21:55;1.70;;;1.30;;
79464;SDS011;68932;47.410;8.232;2024-03-22T11:24:23;1.90;;;1.20;;
79464;SDS011;68932;47.410;8.232;2024-03-22T11:26:51;3.20;;;1.60;;
79464;SDS011;68932;47.410;8.232;2024-03-22T11:29:20;2.70;;;1.40;;
79464;SDS011;68932;47.410;8.232;2024-03-22T11:31:48;1.70;;;1.20;;
79464;SDS011;68932;47.410;8.232;2024-03-22T11:34:17;1.50;;;1.20;;
79464;SDS011;68932;47.410;8.232;2024-03-22T11:36:45;2.60;;;1.40;;
79464;SDS011;68932;47.410;8.232;2024-03-22T11:39:13;2.80;;;1.70;;
79464;SDS011;68932;47.410;8.232;2024-03-22T11:41:41;2.80;;;1.30;;
79464;SDS011;68932;47.410;8.232;2024-03-22T11:44:09;3.20;;;1.70;;
79464;SDS011;68932;47.410;8.232;2024-03-22T11:46:38;3.50;;;1.50;;
79464;SDS011;68932;47.410;8.232;2024-03-22T11:49:06;2.10;;;1.40;;
79464;SDS011;68932;47.410;8.232;2024-03-22T11:51:34;2.80;;;1.30;;
79464;SDS011;68932;47.410;8.232;2024-03-22T11:54:03;2.00;;;1.60;;
79464;SDS011;68932;47.410;8.232;2024-03-22T11:56:31;2.10;;;1.60;;
79464;SDS011;68932;47.410;8.232;2024-03-22T11:59:01;2.50;;;1.50;;
79464;SDS011;68932;47.410;8.232;2024-03-22T12:01:29;3.30;;;1.80;;
79464;SDS011;68932;47.410;8.232;2024-03-22T12:03:57;1.60;;;1.30;;
79464;SDS011;68932;47.410;8.232;2024-03-22T12:06:25;2.80;;;1.50;;
79464;SDS011;68932;47.410;8.232;2024-03-22T12:08:53;1.90;;;1.20;;
79464;SDS011;68932;47.410;8.232;2024-03-22T12:11:20;4.10;;;1.70;;
79464;SDS011;68932;47.410;8.232;2024-03-22T12:13:48;2.80;;;1.40;;
79464;SDS011;68932;47.410;8.232;2024-03-22T12:16:16;2.80;;;1.80;;
79464;SDS011;68932;47.410;8.232;2024-03-22T12:18:44;2.30;;;1.40;;
79464;SDS011;68932;47.410;8.232;2024-03-22T12:21:12;1.70;;;1.30;;
79464;SDS011;68932;47.410;8.232;2024-03-22T12:23:40;3.10;;;1.40;;
79464;SDS011;68932;47.410;8.232;2024-03-22T12:26:08;2.70;;;1.50;;
79464;SDS011;68932;47.410;8.232;2024-03-22T12:28:36;1.80;;;1.30;;
79464;SDS011;68932;47.410;8.232;2024-03-22T12:31:05;3.30;;;0.90;;
79464;SDS011;68932;47.410;8.232;2024-03-22T12:33:34;2.60;;;1.40;;
79464;SDS011;68932;47.410;8.232;2024-03-22T12:36:02;2.90;;;1.50;;
79464;SDS011;68932;47.410;8.232;2024-03-22T12:38:31;1.90;;;1.60;;
79464;SDS011;68932;47.410;8.232;2024-03-22T12:40:59;3.60;;;1.30;;
79464;SDS011;68932;47.410;8.232;2024-03-22T12:43:27;2.90;;;1.50;;
79464;SDS011;68932;47.410;8.232;2024-03-22T12:45:55;1.70;;;1.10;;
79464;SDS011;68932;47.410;8.232;2024-03-22T12:48:23;2.30;;;1.20;;
79464;SDS011;68932;47.410;8.232;2024-03-22T12:50:51;2.40;;;1.10;;
79464;SDS011;68932;47.410;8.232;2024-03-22T12:53:19;2.80;;;1.70;;
79464;SDS011;68932;47.410;8.232;2024-03-22T12:55:46;2.30;;;1.20;;
79464;SDS011;68932;47.410;8.232;2024-03-22T12:58:14;1.60;;;1.20;;
79464;SDS011;68932;47.410;8.232;2024-03-22T13:00:42;2.00;;;1.20;;
79464;SDS011;68932;47.410;8.232;2024-03-22T13:03:10;4.00;;;1.20;;
79464;SDS011;68932;47.410;8.232;2024-03-22T13:05:38;3.10;;;1.30;;
79464;SDS011;68932;47.410;8.232;2024-03-22T13:08:07;3.30;;;1.50;;
79464;SDS011;68932;47.410;8.232;2024-03-22T13:10:34;2.20;;;1.30;;
79464;SDS011;68932;47.410;8.232;2024-03-22T13:13:03;2.70;;;1.40;;
79464;SDS011;68932;47.410;8.232;2024-03-22T13:15:31;1.80;;;1.40;;
79464;SDS011;68932;47.410;8.232;2024-03-22T13:17:59;2.40;;;1.30;;
79464;SDS011;68932;47.410;8.232;2024-03-22T13:20:27;3.30;;;1.60;;
79464;SDS011;68932;47.410;8.232;2024-03-22T13:22:55;2.70;;;1.20;;
79464;SDS011;68932;47.410;8.232;2024-03-22T13:25:23;2.00;;;1.20;;
79464;SDS011;68932;47.410;8.232;2024-03-22T13:27:51;2.10;;;1.30;;
79464;SDS011;68932;47.410;8.232;2024-03-22T13:30:19;1.90;;;0.90;;
79464;SDS011;68932;47.410;8.232;2024-03-22T13:32:47;2.40;;;1.70;;
79464;SDS011;68932;47.410;8.232;2024-03-22T13:35:15;2.10;;;1.10;;
79464;SDS011;68932;47.410;8.232;2024-03-22T13:37:43;2.90;;;1.20;;
79464;SDS011;68932;47.410;8.232;2024-03-22T13:40:12;2.90;;;1.30;;
79464;SDS011;68932;47.410;8.232;2024-03-22T13:42:40;2.90;;;1.70;;
79464;SDS011;68932;47.410;8.232;2024-03-22T13:45:08;1.60;;;1.10;;
79464;SDS011;68932;47.410;8.232;2024-03-22T13:47:37;2.70;;;1.50;;
79464;SDS011;68932;47.410;8.232;2024-03-22T13:50:06;2.90;;;1.30;;
79464;SDS011;68932;47.410;8.232;2024-03-22T13:52:34;2.60;;;1.40;;
79464;SDS011;68932;47.410;8.232;2024-03-22T13:55:02;2.30;;;1.50;;
79464;SDS011;68932;47.410;8.232;2024-03-22T13:57:31;2.80;;;1.40;;
79464;SDS011;68932;47.410;8.232;2024-03-22T13:59:59;2.00;;;1.50;;
79464;SDS011;68932;47.410;8.232;2024-03-22T14:02:27;3.70;;;1.30;;
79464;SDS011;68932;47.410;8.232;2024-03-22T14:04:55;2.70;;;1.20;;
79464;SDS011;68932;47.410;8.232;2024-03-22T14:07:24;1.80;;;1.20;;
79464;SDS011;68932;47.410;8.232;2024-03-22T14:09:51;2.00;;;1.30;;
79464;SDS011;68932;47.410;8.232;2024-03-22T14:12:19;1.80;;;1.20;;
79464;SDS011;68932;47.410;8.232;2024-03-22T14:14:47;1.90;;;1.30;;
79464;SDS011;68932;47.410;8.232;2024-03-22T14:17:15;3.20;;;2.70;;
79464;SDS011;68932;47.410;8.232;2024-03-22T14:19:43;2.70;;;1.80;;
79464;SDS011;68932;47.410;8.232;2024-03-22T14:22:11;2.80;;;1.50;;
79464;SDS011;68932;47.410;8.232;2024-03-22T14:24:39;3.40;;;1.70;;
79464;SDS011;68932;47.410;8.232;2024-03-22T14:27:07;3.10;;;1.30;;
79464;SDS011;68932;47.410;8.232;2024-03-22T14:29:35;2.70;;;2.10;;
79464;SDS011;68932;47.410;8.232;2024-03-22T14:32:03;4.80;;;1.60;;
79464;SDS011;68932;47.410;8.232;2024-03-22T14:34:31;2.00;;;1.50;;
79464;SDS011;68932;47.410;8.232;2024-03-22T14:36:59;3.30;;;1.40;;
79464;SDS011;68932;47.410;8.232;2024-03-22T14:39:27;2.40;;;1.30;;
79464;SDS011;68932;47.410;8.232;2024-03-22T14:41:55;2.20;;;1.60;;
79464;SDS011;68932;47.410;8.232;2024-03-22T14:44:23;2.00;;;1.50;;
79464;SDS011;68932;47.410;8.232;2024-03-22T14:46:51;2.30;;;1.60;;
79464;SDS011;68932;47.410;8.232;2024-03-22T14:49:19;2.30;;;1.50;;
79464;SDS011;68932;47.410;8.232;2024-03-22T14:51:47;3.60;;;1.60;;